sensor_id;sensor_type;location;lat;lon;timestamp;P1;durP1;ratioP1;P2;durP2;ratioP2
16478;SDS011;8350;52.316;10.530;2022-08-04T00:01:33;5.00;;;4.43;;
16478;SDS011;8350;52.316;10.530;2022-08-04T00:04:07;5.20;;;4.50;;
16478;SDS011;8350;52.316;10.530;2022-08-04T00:06:44;5.38;;;4.20;;
16478;SDS011;8350;52.316;10.530;2022-08-04T00:09:22;4.95;;;4.43;;
16478;SDS011;8350;52.316;10.530;2022-08-04T00:11:54;4.60;;;4.20;;
16478;SDS011;8350;52.316;10.530;2022-08-04T00:14:27;5.18;;;4.03;;
16478;SDS011;8350;52.316;10.530;2022-08-04T00:16:59;4.43;;;4.03;;
16478;SDS011;8350;52.316;10.530;2022-08-04T00:19:31;4.22;;;3.83;;
16478;SDS011;8350;52.316;10.530;2022-08-04T00:22:01;4.60;;;4.18;;
16478;SDS011;8350;52.316;10.530;2022-08-04T00:24:29;5.80;;;4.60;;
16478;SDS011;8350;52.316;10.530;2022-08-04T00:26:57;4.85;;;4.38;;
16478;SDS011;8350;52.316;10.530;2022-08-04T00:29:26;4.70;;;4.30;;
16478;SDS011;8350;52.316;10.530;2022-08-04T00:31:55;4.47;;;4.18;;
16478;SDS011;8350;52.316;10.530;2022-08-04T00:34:23;4.70;;;4.28;;
16478;SDS011;8350;52.316;10.530;2022-08-04T00:36:52;4.93;;;4.43;;
16478;SDS011;8350;52.316;10.530;2022-08-04T00:39:20;5.22;;;4.80;;
16478;SDS011;8350;52.316;10.530;2022-08-04T00:41:50;5.85;;;4.15;;
16478;SDS011;8350;52.316;10.530;2022-08-04T00:44:37;5.78;;;5.15;;
16478;SDS011;8350;52.316;10.530;2022-08-04T00:47:14;4.90;;;4.20;;
16478;SDS011;8350;52.316;10.530;2022-08-04T00:50:04;4.50;;;4.10;;
16478;SDS011;8350;52.316;10.530;2022-08-04T00:52:43;6.00;;;4.18;;
16478;SDS011;8350;52.316;10.530;2022-08-04T00:55:27;5.18;;;4.70;;
16478;SDS011;8350;52.316;10.530;2022-08-04T00:58:15;4.78;;;4.38;;
16478;SDS011;8350;52.316;10.530;2022-08-04T01:00:58;4.57;;;4.18;;
16478;SDS011;8350;52.316;10.530;2022-08-04T01:03:32;4.55;;;4.25;;
16478;SDS011;8350;52.316;10.530;2022-08-04T01:06:10;5.22;;;4.82;;
16478;SDS011;8350;52.316;10.530;2022-08-04T01:08:50;4.80;;;4.40;;
16478;SDS011;8350;52.316;10.530;2022-08-04T01:11:39;4.53;;;4.13;;
16478;SDS011;8350;52.316;10.530;2022-08-04T01:14:20;4.68;;;4.22;;
16478;SDS011;8350;52.316;10.530;2022-08-04T01:16:59;4.22;;;3.92;;
16478;SDS011;8350;52.316;10.530;2022-08-04T01:22:33;5.45;;;4.88;;
16478;SDS011;8350;52.316;10.530;2022-08-04T01:25:24;5.43;;;4.97;;
16478;SDS011;8350;52.316;10.530;2022-08-04T01:28:13;6.13;;;4.97;;
16478;SDS011;8350;52.316;10.530;2022-08-04T01:30:55;6.25;;;5.65;;
16478;SDS011;8350;52.316;10.530;2022-08-04T01:33:27;8.10;;;5.22;;
16478;SDS011;8350;52.316;10.530;2022-08-04T01:35:56;6.18;;;4.85;;
16478;SDS011;8350;52.316;10.530;2022-08-04T01:38:28;8.05;;;5.65;;
16478;SDS011;8350;52.316;10.530;2022-08-04T01:40:59;6.90;;;5.15;;
16478;SDS011;8350;52.316;10.530;2022-08-04T01:43:29;6.18;;;5.57;;
16478;SDS011;8350;52.316;10.530;2022-08-04T01:46:00;5.13;;;4.72;;
16478;SDS011;8350;52.316;10.530;2022-08-04T01:48:28;5.70;;;4.90;;
16478;SDS011;8350;52.316;10.530;2022-08-04T01:50:57;4.72;;;4.40;;
16478;SDS011;8350;52.316;10.530;2022-08-04T01:53:28;4.70;;;4.30;;
16478;SDS011;8350;52.316;10.530;2022-08-04T01:55:58;5.75;;;5.10;;
16478;SDS011;8350;52.316;10.530;2022-08-04T01:58:28;5.82;;;5.18;;
16478;SDS011;8350;52.316;10.530;2022-08-04T02:00:57;5.22;;;4.70;;
16478;SDS011;8350;52.316;10.530;2022-08-04T02:03:29;5.40;;;4.90;;
16478;SDS011;8350;52.316;10.530;2022-08-04T02:05:58;5.07;;;4.30;;
16478;SDS011;8350;52.316;10.530;2022-08-04T02:08:37;5.05;;;4.45;;
16478;SDS011;8350;52.316;10.530;2022-08-04T02:11:14;5.18;;;4.68;;
16478;SDS011;8350;52.316;10.530;2022-08-04T02:13:45;5.57;;;5.07;;
16478;SDS011;8350;52.316;10.530;2022-08-04T02:16:27;5.00;;;4.50;;
16478;SDS011;8350;52.316;10.530;2022-08-04T02:18:59;5.20;;;4.70;;
16478;SDS011;8350;52.316;10.530;2022-08-04T02:21:32;5.97;;;4.80;;
16478;SDS011;8350;52.316;10.530;2022-08-04T02:24:02;11.65;;;5.07;;
16478;SDS011;8350;52.316;10.530;2022-08-04T02:26:32;6.85;;;5.22;;
16478;SDS011;8350;52.316;10.530;2022-08-04T02:29:03;5.32;;;4.82;;
16478;SDS011;8350;52.316;10.530;2022-08-04T02:31:41;4.68;;;4.30;;
16478;SDS011;8350;52.316;10.530;2022-08-04T02:34:15;5.28;;;4.88;;
16478;SDS011;8350;52.316;10.530;2022-08-04T02:36:47;6.13;;;5.53;;
16478;SDS011;8350;52.316;10.530;2022-08-04T02:39:16;5.40;;;5.00;;
16478;SDS011;8350;52.316;10.530;2022-08-04T02:41:45;6.20;;;4.90;;
16478;SDS011;8350;52.316;10.530;2022-08-04T02:44:13;5.38;;;4.90;;
16478;SDS011;8350;52.316;10.530;2022-08-04T02:46:47;4.50;;;4.20;;
16478;SDS011;8350;52.316;10.530;2022-08-04T02:49:23;4.75;;;4.45;;
16478;SDS011;8350;52.316;10.530;2022-08-04T02:51:52;5.43;;;4.40;;
16478;SDS011;8350;52.316;10.530;2022-08-04T02:54:22;4.65;;;4.35;;
16478;SDS011;8350;52.316;10.530;2022-08-04T02:56:50;5.22;;;4.65;;
16478;SDS011;8350;52.316;10.530;2022-08-04T02:59:19;5.03;;;4.63;;
16478;SDS011;8350;52.316;10.530;2022-08-04T03:01:53;5.82;;;4.68;;
16478;SDS011;8350;52.316;10.530;2022-08-04T03:04:24;5.03;;;4.63;;
16478;SDS011;8350;52.316;10.530;2022-08-04T03:13:57;6.10;;;5.10;;
16478;SDS011;8350;52.316;10.530;2022-08-04T03:19:40;5.97;;;5.43;;
16478;SDS011;8350;52.316;10.530;2022-08-04T03:22:28;6.25;;;5.60;;
16478;SDS011;8350;52.316;10.530;2022-08-04T03:25:36;6.32;;;5.47;;
16478;SDS011;8350;52.316;10.530;2022-08-04T03:28:37;6.00;;;4.70;;
16478;SDS011;8350;52.316;10.530;2022-08-04T03:34:36;5.63;;;4.75;;
16478;SDS011;8350;52.316;10.530;2022-08-04T03:37:24;5.15;;;4.68;;
16478;SDS011;8350;52.316;10.530;2022-08-04T03:40:16;5.00;;;4.57;;
16478;SDS011;8350;52.316;10.530;2022-08-04T03:43:20;5.15;;;4.57;;
16478;SDS011;8350;52.316;10.530;2022-08-04T03:46:28;7.13;;;4.72;;
16478;SDS011;8350;52.316;10.530;2022-08-04T03:49:20;4.93;;;4.63;;
16478;SDS011;8350;52.316;10.530;2022-08-04T03:52:22;5.20;;;4.38;;
16478;SDS011;8350;52.316;10.530;2022-08-04T03:58:16;5.53;;;5.03;;
16478;SDS011;8350;52.316;10.530;2022-08-04T04:00:57;5.78;;;5.25;;
16478;SDS011;8350;52.316;10.530;2022-08-04T04:03:39;6.05;;;5.55;;
16478;SDS011;8350;52.316;10.530;2022-08-04T04:06:34;6.43;;;5.68;;
16478;SDS011;8350;52.316;10.530;2022-08-04T04:12:48;5.47;;;5.07;;
16478;SDS011;8350;52.316;10.530;2022-08-04T04:15:34;5.63;;;5.13;;
16478;SDS011;8350;52.316;10.530;2022-08-04T04:18:15;5.50;;;5.10;;
16478;SDS011;8350;52.316;10.530;2022-08-04T04:21:09;5.95;;;5.45;;
16478;SDS011;8350;52.316;10.530;2022-08-04T04:24:05;6.88;;;6.28;;
16478;SDS011;8350;52.316;10.530;2022-08-04T04:26:56;7.32;;;6.05;;
16478;SDS011;8350;52.316;10.530;2022-08-04T04:29:35;6.45;;;5.32;;
16478;SDS011;8350;52.316;10.530;2022-08-04T04:32:26;6.80;;;5.97;;
16478;SDS011;8350;52.316;10.530;2022-08-04T04:38:06;6.10;;;5.50;;
16478;SDS011;8350;52.316;10.530;2022-08-04T04:40:54;7.22;;;6.50;;
16478;SDS011;8350;52.316;10.530;2022-08-04T04:43:38;7.32;;;6.65;;
16478;SDS011;8350;52.316;10.530;2022-08-04T04:46:31;5.45;;;4.95;;
16478;SDS011;8350;52.316;10.530;2022-08-04T04:49:07;6.53;;;5.38;;
16478;SDS011;8350;52.316;10.530;2022-08-04T04:51:43;5.32;;;4.88;;
16478;SDS011;8350;52.316;10.530;2022-08-04T04:54:23;5.90;;;5.00;;
16478;SDS011;8350;52.316;10.530;2022-08-04T04:56:59;6.68;;;5.93;;
16478;SDS011;8350;52.316;10.530;2022-08-04T04:59:33;5.72;;;5.05;;
16478;SDS011;8350;52.316;10.530;2022-08-04T05:02:12;5.28;;;4.88;;
16478;SDS011;8350;52.316;10.530;2022-08-04T05:04:57;5.32;;;4.82;;
16478;SDS011;8350;52.316;10.530;2022-08-04T05:07:58;6.55;;;5.07;;
16478;SDS011;8350;52.316;10.530;2022-08-04T05:11:12;8.25;;;6.50;;
16478;SDS011;8350;52.316;10.530;2022-08-04T05:13:56;7.68;;;5.85;;
16478;SDS011;8350;52.316;10.530;2022-08-04T05:16:29;6.45;;;5.78;;
16478;SDS011;8350;52.316;10.530;2022-08-04T05:19:06;7.20;;;5.63;;
16478;SDS011;8350;52.316;10.530;2022-08-04T05:21:44;6.40;;;5.38;;
16478;SDS011;8350;52.316;10.530;2022-08-04T05:24:17;7.95;;;5.43;;
16478;SDS011;8350;52.316;10.530;2022-08-04T05:26:47;6.22;;;5.38;;
16478;SDS011;8350;52.316;10.530;2022-08-04T05:29:19;5.60;;;4.70;;
16478;SDS011;8350;52.316;10.530;2022-08-04T05:31:51;6.07;;;4.90;;
16478;SDS011;8350;52.316;10.530;2022-08-04T05:34:30;8.73;;;5.05;;
16478;SDS011;8350;52.316;10.530;2022-08-04T05:37:11;6.80;;;5.03;;
16478;SDS011;8350;52.316;10.530;2022-08-04T05:39:43;5.57;;;4.85;;
16478;SDS011;8350;52.316;10.530;2022-08-04T05:42:13;7.13;;;4.68;;
16478;SDS011;8350;52.316;10.530;2022-08-04T05:44:41;6.03;;;4.22;;
16478;SDS011;8350;52.316;10.530;2022-08-04T05:47:10;7.38;;;4.40;;
16478;SDS011;8350;52.316;10.530;2022-08-04T05:49:42;6.40;;;4.45;;
16478;SDS011;8350;52.316;10.530;2022-08-04T05:52:10;6.07;;;4.60;;
16478;SDS011;8350;52.316;10.530;2022-08-04T05:54:39;6.20;;;4.07;;
16478;SDS011;8350;52.316;10.530;2022-08-04T05:57:07;5.75;;;4.25;;
16478;SDS011;8350;52.316;10.530;2022-08-04T05:59:37;5.00;;;4.25;;
16478;SDS011;8350;52.316;10.530;2022-08-04T06:02:06;4.57;;;3.65;;
16478;SDS011;8350;52.316;10.530;2022-08-04T06:04:36;4.97;;;4.45;;
16478;SDS011;8350;52.316;10.530;2022-08-04T06:07:05;5.65;;;4.90;;
16478;SDS011;8350;52.316;10.530;2022-08-04T06:09:35;5.28;;;4.65;;
16478;SDS011;8350;52.316;10.530;2022-08-04T06:12:03;7.93;;;3.97;;
16478;SDS011;8350;52.316;10.530;2022-08-04T06:14:35;5.32;;;4.10;;
16478;SDS011;8350;52.316;10.530;2022-08-04T06:17:05;9.07;;;3.88;;
16478;SDS011;8350;52.316;10.530;2022-08-04T06:19:34;4.90;;;3.58;;
16478;SDS011;8350;52.316;10.530;2022-08-04T06:22:02;6.82;;;3.42;;
16478;SDS011;8350;52.316;10.530;2022-08-04T06:24:35;4.90;;;3.50;;
16478;SDS011;8350;52.316;10.530;2022-08-04T06:27:04;6.70;;;3.50;;
16478;SDS011;8350;52.316;10.530;2022-08-04T06:29:32;5.25;;;3.30;;
16478;SDS011;8350;52.316;10.530;2022-08-04T06:32:07;6.78;;;3.55;;
16478;SDS011;8350;52.316;10.530;2022-08-04T06:34:51;4.68;;;3.38;;
16478;SDS011;8350;52.316;10.530;2022-08-04T06:37:23;6.15;;;3.45;;
16478;SDS011;8350;52.316;10.530;2022-08-04T06:39:51;3.92;;;3.47;;
16478;SDS011;8350;52.316;10.530;2022-08-04T06:42:21;5.50;;;3.15;;
16478;SDS011;8350;52.316;10.530;2022-08-04T06:44:50;3.22;;;2.78;;
16478;SDS011;8350;52.316;10.530;2022-08-04T06:47:20;4.35;;;3.50;;
16478;SDS011;8350;52.316;10.530;2022-08-04T06:49:49;3.78;;;3.28;;
16478;SDS011;8350;52.316;10.530;2022-08-04T06:52:20;3.72;;;3.03;;
16478;SDS011;8350;52.316;10.530;2022-08-04T06:54:49;5.63;;;3.03;;
16478;SDS011;8350;52.316;10.530;2022-08-04T06:57:21;4.63;;;3.08;;
16478;SDS011;8350;52.316;10.530;2022-08-04T06:59:50;3.53;;;2.80;;
16478;SDS011;8350;52.316;10.530;2022-08-04T07:02:21;5.13;;;2.78;;
16478;SDS011;8350;52.316;10.530;2022-08-04T07:04:51;3.03;;;2.50;;
16478;SDS011;8350;52.316;10.530;2022-08-04T07:07:19;3.97;;;2.80;;
16478;SDS011;8350;52.316;10.530;2022-08-04T07:09:46;3.10;;;2.65;;
16478;SDS011;8350;52.316;10.530;2022-08-04T07:12:14;4.22;;;2.80;;
16478;SDS011;8350;52.316;10.530;2022-08-04T07:14:45;2.83;;;2.40;;
16478;SDS011;8350;52.316;10.530;2022-08-04T07:17:13;3.88;;;2.95;;
16478;SDS011;8350;52.316;10.530;2022-08-04T07:19:42;4.38;;;2.60;;
16478;SDS011;8350;52.316;10.530;2022-08-04T07:22:09;4.25;;;2.83;;
16478;SDS011;8350;52.316;10.530;2022-08-04T07:24:37;5.13;;;2.80;;
16478;SDS011;8350;52.316;10.530;2022-08-04T07:27:04;3.80;;;2.50;;
16478;SDS011;8350;52.316;10.530;2022-08-04T07:29:33;5.20;;;2.53;;
16478;SDS011;8350;52.316;10.530;2022-08-04T07:32:06;2.55;;;2.35;;
16478;SDS011;8350;52.316;10.530;2022-08-04T07:34:37;6.13;;;2.50;;
16478;SDS011;8350;52.316;10.530;2022-08-04T07:37:07;6.15;;;2.38;;
16478;SDS011;8350;52.316;10.530;2022-08-04T07:39:34;4.32;;;2.78;;
16478;SDS011;8350;52.316;10.530;2022-08-04T07:42:02;5.25;;;2.60;;
16478;SDS011;8350;52.316;10.530;2022-08-04T07:44:29;4.07;;;2.35;;
16478;SDS011;8350;52.316;10.530;2022-08-04T07:47:01;6.97;;;2.83;;
16478;SDS011;8350;52.316;10.530;2022-08-04T07:49:48;3.58;;;2.67;;
16478;SDS011;8350;52.316;10.530;2022-08-04T07:52:15;2.30;;;2.10;;
16478;SDS011;8350;52.316;10.530;2022-08-04T07:54:43;2.63;;;2.30;;
16478;SDS011;8350;52.316;10.530;2022-08-04T07:57:10;3.67;;;2.50;;
16478;SDS011;8350;52.316;10.530;2022-08-04T07:59:37;3.20;;;2.25;;
16478;SDS011;8350;52.316;10.530;2022-08-04T08:02:05;3.58;;;2.13;;
16478;SDS011;8350;52.316;10.530;2022-08-04T08:04:32;3.80;;;2.45;;
16478;SDS011;8350;52.316;10.530;2022-08-04T08:06:59;3.80;;;2.40;;
16478;SDS011;8350;52.316;10.530;2022-08-04T08:09:29;3.28;;;2.28;;
16478;SDS011;8350;52.316;10.530;2022-08-04T08:11:59;6.00;;;2.42;;
16478;SDS011;8350;52.316;10.530;2022-08-04T08:14:27;2.53;;;2.30;;
16478;SDS011;8350;52.316;10.530;2022-08-04T08:16:55;3.20;;;2.33;;
16478;SDS011;8350;52.316;10.530;2022-08-04T08:19:31;2.47;;;2.28;;
16478;SDS011;8350;52.316;10.530;2022-08-04T08:21:59;5.07;;;2.60;;
16478;SDS011;8350;52.316;10.530;2022-08-04T08:24:26;5.20;;;2.65;;
16478;SDS011;8350;52.316;10.530;2022-08-04T08:27:05;2.70;;;1.90;;
16478;SDS011;8350;52.316;10.530;2022-08-04T08:29:32;3.92;;;2.20;;
16478;SDS011;8350;52.316;10.530;2022-08-04T08:32:07;4.63;;;2.17;;
16478;SDS011;8350;52.316;10.530;2022-08-04T08:34:38;3.67;;;2.60;;
16478;SDS011;8350;52.316;10.530;2022-08-04T08:37:11;5.28;;;2.00;;
16478;SDS011;8350;52.316;10.530;2022-08-04T08:39:45;2.90;;;1.95;;
16478;SDS011;8350;52.316;10.530;2022-08-04T08:42:25;4.78;;;2.38;;
16478;SDS011;8350;52.316;10.530;2022-08-04T08:45:17;4.78;;;2.40;;
16478;SDS011;8350;52.316;10.530;2022-08-04T08:48:19;3.78;;;2.13;;
16478;SDS011;8350;52.316;10.530;2022-08-04T08:51:06;4.43;;;2.10;;
16478;SDS011;8350;52.316;10.530;2022-08-04T08:54:02;4.55;;;1.83;;
16478;SDS011;8350;52.316;10.530;2022-08-04T08:56:50;5.05;;;2.40;;
16478;SDS011;8350;52.316;10.530;2022-08-04T09:05:13;4.43;;;2.17;;
16478;SDS011;8350;52.316;10.530;2022-08-04T09:08:03;3.92;;;1.83;;
16478;SDS011;8350;52.316;10.530;2022-08-04T09:10:45;2.13;;;1.70;;
16478;SDS011;8350;52.316;10.530;2022-08-04T09:13:15;3.28;;;2.00;;
16478;SDS011;8350;52.316;10.530;2022-08-04T09:15:51;3.67;;;1.88;;
16478;SDS011;8350;52.316;10.530;2022-08-04T09:18:31;3.55;;;1.80;;
16478;SDS011;8350;52.316;10.530;2022-08-04T09:21:03;3.65;;;1.90;;
16478;SDS011;8350;52.316;10.530;2022-08-04T09:23:42;2.30;;;2.10;;
16478;SDS011;8350;52.316;10.530;2022-08-04T09:26:14;3.78;;;1.98;;
16478;SDS011;8350;52.316;10.530;2022-08-04T09:28:47;2.35;;;1.88;;
16478;SDS011;8350;52.316;10.530;2022-08-04T09:31:21;3.13;;;2.10;;
16478;SDS011;8350;52.316;10.530;2022-08-04T09:33:56;2.13;;;1.80;;
16478;SDS011;8350;52.316;10.530;2022-08-04T09:36:31;2.03;;;1.80;;
16478;SDS011;8350;52.316;10.530;2022-08-04T09:39:05;1.85;;;1.73;;
16478;SDS011;8350;52.316;10.530;2022-08-04T09:41:39;4.45;;;2.05;;
16478;SDS011;8350;52.316;10.530;2022-08-04T09:44:15;2.95;;;2.45;;
16478;SDS011;8350;52.316;10.530;2022-08-04T09:46:52;2.42;;;1.80;;
16478;SDS011;8350;52.316;10.530;2022-08-04T09:49:33;3.63;;;2.00;;
16478;SDS011;8350;52.316;10.530;2022-08-04T09:52:06;2.85;;;1.70;;
16478;SDS011;8350;52.316;10.530;2022-08-04T09:54:44;4.60;;;2.38;;
16478;SDS011;8350;52.316;10.530;2022-08-04T09:57:18;2.05;;;1.63;;
16478;SDS011;8350;52.316;10.530;2022-08-04T09:59:56;3.40;;;1.90;;
16478;SDS011;8350;52.316;10.530;2022-08-04T10:02:27;1.83;;;1.73;;
16478;SDS011;8350;52.316;10.530;2022-08-04T10:04:58;3.13;;;2.00;;
16478;SDS011;8350;52.316;10.530;2022-08-04T10:07:35;2.25;;;2.05;;
16478;SDS011;8350;52.316;10.530;2022-08-04T10:10:31;3.17;;;2.05;;
16478;SDS011;8350;52.316;10.530;2022-08-04T10:13:11;2.67;;;1.98;;
16478;SDS011;8350;52.316;10.530;2022-08-04T10:15:45;2.50;;;2.30;;
16478;SDS011;8350;52.316;10.530;2022-08-04T10:18:27;3.50;;;2.25;;
16478;SDS011;8350;52.316;10.530;2022-08-04T10:21:06;2.35;;;2.03;;
16478;SDS011;8350;52.316;10.530;2022-08-04T10:23:46;2.72;;;1.90;;
16478;SDS011;8350;52.316;10.530;2022-08-04T10:26:32;2.80;;;2.50;;
16478;SDS011;8350;52.316;10.530;2022-08-04T10:29:11;2.50;;;2.00;;
16478;SDS011;8350;52.316;10.530;2022-08-04T10:31:43;2.95;;;2.05;;
16478;SDS011;8350;52.316;10.530;2022-08-04T10:34:15;5.57;;;2.35;;
16478;SDS011;8350;52.316;10.530;2022-08-04T10:36:48;3.95;;;2.13;;
16478;SDS011;8350;52.316;10.530;2022-08-04T10:39:26;2.47;;;2.28;;
16478;SDS011;8350;52.316;10.530;2022-08-04T10:42:02;2.70;;;1.98;;
16478;SDS011;8350;52.316;10.530;2022-08-04T10:44:39;2.47;;;1.85;;
16478;SDS011;8350;52.316;10.530;2022-08-04T10:47:18;3.10;;;2.10;;
16478;SDS011;8350;52.316;10.530;2022-08-04T10:49:50;2.25;;;2.00;;
16478;SDS011;8350;52.316;10.530;2022-08-04T10:52:27;4.65;;;2.30;;
16478;SDS011;8350;52.316;10.530;2022-08-04T10:55:02;4.35;;;2.10;;
16478;SDS011;8350;52.316;10.530;2022-08-04T10:57:35;4.35;;;2.15;;
16478;SDS011;8350;52.316;10.530;2022-08-04T11:00:09;6.85;;;2.40;;
16478;SDS011;8350;52.316;10.530;2022-08-04T11:02:40;3.45;;;2.03;;
16478;SDS011;8350;52.316;10.530;2022-08-04T11:05:14;3.67;;;2.25;;
16478;SDS011;8350;52.316;10.530;2022-08-04T11:07:49;2.17;;;2.08;;
16478;SDS011;8350;52.316;10.530;2022-08-04T11:10:21;3.67;;;2.28;;
16478;SDS011;8350;52.316;10.530;2022-08-04T11:12:53;4.07;;;2.10;;
16478;SDS011;8350;52.316;10.530;2022-08-04T11:15:24;2.30;;;1.80;;
16478;SDS011;8350;52.316;10.530;2022-08-04T11:17:55;2.63;;;1.92;;
16478;SDS011;8350;52.316;10.530;2022-08-04T11:20:27;3.83;;;2.35;;
16478;SDS011;8350;52.316;10.530;2022-08-04T11:23:02;2.08;;;1.88;;
16478;SDS011;8350;52.316;10.530;2022-08-04T11:25:33;4.15;;;2.42;;
16478;SDS011;8350;52.316;10.530;2022-08-04T11:28:10;2.83;;;1.70;;
16478;SDS011;8350;52.316;10.530;2022-08-04T11:30:47;5.72;;;2.22;;
16478;SDS011;8350;52.316;10.530;2022-08-04T11:33:20;2.80;;;2.10;;
16478;SDS011;8350;52.316;10.530;2022-08-04T11:35:56;3.80;;;2.20;;
16478;SDS011;8350;52.316;10.530;2022-08-04T11:38:30;3.08;;;2.17;;
16478;SDS011;8350;52.316;10.530;2022-08-04T11:41:04;3.50;;;2.50;;
16478;SDS011;8350;52.316;10.530;2022-08-04T11:43:41;2.85;;;2.30;;
16478;SDS011;8350;52.316;10.530;2022-08-04T11:46:11;2.63;;;2.40;;
16478;SDS011;8350;52.316;10.530;2022-08-04T11:48:44;3.70;;;2.40;;
16478;SDS011;8350;52.316;10.530;2022-08-04T11:51:18;6.50;;;2.42;;
16478;SDS011;8350;52.316;10.530;2022-08-04T11:53:46;2.90;;;2.03;;
16478;SDS011;8350;52.316;10.530;2022-08-04T11:56:15;4.45;;;2.28;;
16478;SDS011;8350;52.316;10.530;2022-08-04T11:58:43;1.90;;;1.80;;
16478;SDS011;8350;52.316;10.530;2022-08-04T12:01:14;2.65;;;1.80;;
16478;SDS011;8350;52.316;10.530;2022-08-04T12:03:48;3.40;;;1.50;;
16478;SDS011;8350;52.316;10.530;2022-08-04T12:06:28;2.08;;;1.70;;
16478;SDS011;8350;52.316;10.530;2022-08-04T12:09:06;1.95;;;1.85;;
16478;SDS011;8350;52.316;10.530;2022-08-04T12:11:39;2.72;;;1.85;;
16478;SDS011;8350;52.316;10.530;2022-08-04T12:14:27;3.30;;;1.83;;
16478;SDS011;8350;52.316;10.530;2022-08-04T12:17:14;3.08;;;1.77;;
16478;SDS011;8350;52.316;10.530;2022-08-04T12:19:57;1.88;;;1.60;;
16478;SDS011;8350;52.316;10.530;2022-08-04T12:22:31;1.98;;;1.77;;
16478;SDS011;8350;52.316;10.530;2022-08-04T12:25:02;1.70;;;1.60;;
16478;SDS011;8350;52.316;10.530;2022-08-04T12:27:34;3.10;;;1.92;;
16478;SDS011;8350;52.316;10.530;2022-08-04T12:30:06;2.35;;;1.70;;
16478;SDS011;8350;52.316;10.530;2022-08-04T12:32:40;3.40;;;1.80;;
16478;SDS011;8350;52.316;10.530;2022-08-04T12:43:04;2.05;;;1.63;;
16478;SDS011;8350;52.316;10.530;2022-08-04T14:10:35;2.53;;;2.33;;
16478;SDS011;8350;52.316;10.530;2022-08-04T14:13:05;1.67;;;1.58;;
16478;SDS011;8350;52.316;10.530;2022-08-04T14:15:38;2.67;;;2.05;;
16478;SDS011;8350;52.316;10.530;2022-08-04T14:18:17;2.83;;;2.00;;
16478;SDS011;8350;52.316;10.530;2022-08-04T14:20:57;2.30;;;2.08;;
16478;SDS011;8350;52.316;10.530;2022-08-04T14:29:58;2.22;;;2.00;;
16478;SDS011;8350;52.316;10.530;2022-08-04T14:35:56;2.05;;;1.80;;
16478;SDS011;8350;52.316;10.530;2022-08-04T14:38:39;2.22;;;2.03;;
16478;SDS011;8350;52.316;10.530;2022-08-04T14:41:27;1.92;;;1.83;;
16478;SDS011;8350;52.316;10.530;2022-08-04T14:43:57;3.08;;;1.80;;
16478;SDS011;8350;52.316;10.530;2022-08-04T14:46:35;1.90;;;1.80;;
16478;SDS011;8350;52.316;10.530;2022-08-04T14:49:15;2.10;;;1.90;;
16478;SDS011;8350;52.316;10.530;2022-08-04T14:51:43;3.05;;;1.73;;
16478;SDS011;8350;52.316;10.530;2022-08-04T14:54:12;2.33;;;2.13;;
16478;SDS011;8350;52.316;10.530;2022-08-04T14:56:41;2.60;;;2.30;;
16478;SDS011;8350;52.316;10.530;2022-08-04T14:59:16;3.47;;;2.03;;
16478;SDS011;8350;52.316;10.530;2022-08-04T15:01:45;2.10;;;1.92;;
16478;SDS011;8350;52.316;10.530;2022-08-04T15:04:21;3.45;;;2.30;;
16478;SDS011;8350;52.316;10.530;2022-08-04T15:06:54;2.22;;;1.90;;
16478;SDS011;8350;52.316;10.530;2022-08-04T15:09:23;2.47;;;1.95;;
16478;SDS011;8350;52.316;10.530;2022-08-04T15:11:54;3.75;;;2.03;;
16478;SDS011;8350;52.316;10.530;2022-08-04T15:14:22;1.98;;;1.88;;
16478;SDS011;8350;52.316;10.530;2022-08-04T15:16:52;3.30;;;2.20;;
16478;SDS011;8350;52.316;10.530;2022-08-04T15:19:22;1.80;;;1.70;;
16478;SDS011;8350;52.316;10.530;2022-08-04T15:21:54;2.65;;;2.03;;
16478;SDS011;8350;52.316;10.530;2022-08-04T15:24:53;1.90;;;1.80;;
16478;SDS011;8350;52.316;10.530;2022-08-04T15:27:23;3.22;;;1.83;;
16478;SDS011;8350;52.316;10.530;2022-08-04T15:29:59;3.17;;;2.03;;
16478;SDS011;8350;52.316;10.530;2022-08-04T15:32:39;8.23;;;2.55;;
16478;SDS011;8350;52.316;10.530;2022-08-04T15:35:10;2.83;;;1.95;;
16478;SDS011;8350;52.316;10.530;2022-08-04T15:40:42;3.70;;;1.80;;
16478;SDS011;8350;52.316;10.530;2022-08-04T15:43:31;11.18;;;2.92;;
16478;SDS011;8350;52.316;10.530;2022-08-04T15:49:36;9.82;;;3.38;;
16478;SDS011;8350;52.316;10.530;2022-08-04T15:58:05;6.03;;;3.40;;
16478;SDS011;8350;52.316;10.530;2022-08-04T16:03:41;3.95;;;2.90;;
16478;SDS011;8350;52.316;10.530;2022-08-04T16:09:22;4.30;;;3.90;;
16478;SDS011;8350;52.316;10.530;2022-08-04T16:11:53;4.40;;;3.60;;
16478;SDS011;8350;52.316;10.530;2022-08-04T16:14:32;3.67;;;3.15;;
16478;SDS011;8350;52.316;10.530;2022-08-04T16:17:14;3.60;;;3.30;;
16478;SDS011;8350;52.316;10.530;2022-08-04T16:19:51;4.53;;;3.40;;
16478;SDS011;8350;52.316;10.530;2022-08-04T16:22:35;3.70;;;2.88;;
16478;SDS011;8350;52.316;10.530;2022-08-04T16:25:12;6.60;;;3.38;;
16478;SDS011;8350;52.316;10.530;2022-08-04T16:27:45;3.75;;;3.15;;
16478;SDS011;8350;52.316;10.530;2022-08-04T16:30:13;3.25;;;3.05;;
16478;SDS011;8350;52.316;10.530;2022-08-04T16:32:41;4.63;;;2.60;;
16478;SDS011;8350;52.316;10.530;2022-08-04T16:35:25;4.50;;;2.90;;
16478;SDS011;8350;52.316;10.530;2022-08-04T16:40:56;4.25;;;3.28;;
16478;SDS011;8350;52.316;10.530;2022-08-04T16:43:26;3.70;;;3.50;;
16478;SDS011;8350;52.316;10.530;2022-08-04T16:45:54;4.70;;;3.20;;
16478;SDS011;8350;52.316;10.530;2022-08-04T16:48:24;3.85;;;3.20;;
16478;SDS011;8350;52.316;10.530;2022-08-04T16:50:56;3.75;;;3.45;;
16478;SDS011;8350;52.316;10.530;2022-08-04T16:53:27;3.55;;;3.25;;
16478;SDS011;8350;52.316;10.530;2022-08-04T16:56:00;3.83;;;3.00;;
16478;SDS011;8350;52.316;10.530;2022-08-04T16:58:31;5.07;;;2.95;;
16478;SDS011;8350;52.316;10.530;2022-08-04T17:01:05;4.55;;;3.15;;
16478;SDS011;8350;52.316;10.530;2022-08-04T17:03:37;4.00;;;3.10;;
16478;SDS011;8350;52.316;10.530;2022-08-04T17:06:39;4.35;;;3.08;;
16478;SDS011;8350;52.316;10.530;2022-08-04T17:15:42;4.30;;;3.00;;
16478;SDS011;8350;52.316;10.530;2022-08-04T17:21:51;5.50;;;3.88;;
16478;SDS011;8350;52.316;10.530;2022-08-04T17:24:39;3.80;;;3.30;;
16478;SDS011;8350;52.316;10.530;2022-08-04T17:27:41;4.25;;;3.40;;
16478;SDS011;8350;52.316;10.530;2022-08-04T17:40:32;5.47;;;2.55;;
16478;SDS011;8350;52.316;10.530;2022-08-04T17:59:16;3.60;;;2.25;;
16478;SDS011;8350;52.316;10.530;2022-08-04T18:02:28;4.97;;;2.50;;
16478;SDS011;8350;52.316;10.530;2022-08-04T18:12:04;4.05;;;2.22;;
16478;SDS011;8350;52.316;10.530;2022-08-04T18:15:19;6.55;;;2.40;;
16478;SDS011;8350;52.316;10.530;2022-08-04T18:18:22;4.05;;;2.17;;
16478;SDS011;8350;52.316;10.530;2022-08-04T18:21:05;7.68;;;2.65;;
16478;SDS011;8350;52.316;10.530;2022-08-04T18:25:37;4.80;;;2.45;;
16478;SDS011;8350;52.316;10.530;2022-08-04T18:27:26;4.72;;;2.42;;
16478;SDS011;8350;52.316;10.530;2022-08-04T18:30:29;2.97;;;2.45;;
16478;SDS011;8350;52.316;10.530;2022-08-04T18:33:37;2.60;;;2.13;;
16478;SDS011;8350;52.316;10.530;2022-08-04T18:36:29;3.05;;;2.03;;
16478;SDS011;8350;52.316;10.530;2022-08-04T18:39:04;4.40;;;2.30;;
16478;SDS011;8350;52.316;10.530;2022-08-04T18:51:29;3.92;;;1.88;;
16478;SDS011;8350;52.316;10.530;2022-08-04T18:56:57;3.60;;;2.15;;
16478;SDS011;8350;52.316;10.530;2022-08-04T18:59:25;5.60;;;2.33;;
16478;SDS011;8350;52.316;10.530;2022-08-04T19:01:52;6.40;;;2.15;;
16478;SDS011;8350;52.316;10.530;2022-08-04T19:04:22;5.50;;;2.38;;
16478;SDS011;8350;52.316;10.530;2022-08-04T19:07:01;3.28;;;2.80;;
16478;SDS011;8350;52.316;10.530;2022-08-04T19:09:32;3.72;;;2.88;;
16478;SDS011;8350;52.316;10.530;2022-08-04T19:12:01;2.83;;;2.30;;
16478;SDS011;8350;52.316;10.530;2022-08-04T19:17:14;4.07;;;2.05;;